createdAt,value
2019-05-21T00:01:14.488Z,12.80
2019-05-21T00:03:43.014Z,12.80
2019-05-21T00:06:11.463Z,12.70
2019-05-21T00:08:39.956Z,12.60
2019-05-21T00:11:08.392Z,12.70
2019-05-21T00:13:36.851Z,12.60
2019-05-21T00:16:05.389Z,12.80
2019-05-21T00:18:33.825Z,12.60
2019-05-21T00:21:02.292Z,12.50
2019-05-21T00:23:30.864Z,12.50
2019-05-21T00:25:59.327Z,12.50
2019-05-21T00:28:37.695Z,12.50
2019-05-21T00:31:43.201Z,12.50
2019-05-21T00:34:48.741Z,12.60
2019-05-21T00:37:53.373Z,12.60
2019-05-21T00:40:58.338Z,12.50
2019-05-21T00:43:38.396Z,12.50
2019-05-21T00:46:06.964Z,12.60
2019-05-21T00:48:35.475Z,12.70
2019-05-21T00:51:04.068Z,12.80
2019-05-21T00:53:32.550Z,12.80
2019-05-21T00:56:01.000Z,12.90
2019-05-21T00:58:29.442Z,12.90
2019-05-21T01:00:57.921Z,12.90
2019-05-21T01:03:26.371Z,12.90
2019-05-21T01:05:54.886Z,13.00
2019-05-21T01:08:23.365Z,13.00
2019-05-21T01:10:51.816Z,13.10
2019-05-21T01:13:20.332Z,13.20
2019-05-21T01:15:48.801Z,13.30
2019-05-21T01:18:17.265Z,13.30
2019-05-21T01:20:45.713Z,13.40
2019-05-21T01:23:14.285Z,13.50
2019-05-21T01:25:42.744Z,13.50
2019-05-21T01:28:11.181Z,13.50
2019-05-21T01:30:39.661Z,13.50
2019-05-21T01:33:08.102Z,13.50
2019-05-21T01:35:36.542Z,13.60
2019-05-21T01:38:05.015Z,13.60
2019-05-21T01:40:33.527Z,13.60
2019-05-21T01:43:03.524Z,13.50
2019-05-21T01:45:32.150Z,13.50
2019-05-21T01:48:00.592Z,13.60
2019-05-21T01:50:29.037Z,13.60
2019-05-21T01:52:57.969Z,13.70
2019-05-21T01:55:26.408Z,13.70
2019-05-21T01:57:54.857Z,13.70
2019-05-21T02:00:23.312Z,13.60
2019-05-21T02:02:51.766Z,13.60
2019-05-21T02:05:32.180Z,13.50
2019-05-21T02:07:50.416Z,13.40
2019-05-21T02:10:18.875Z,13.30
2019-05-21T02:12:47.395Z,13.20
2019-05-21T02:15:16.098Z,13.20
2019-05-21T02:17:44.545Z,13.30
2019-05-21T02:20:13.429Z,13.40
2019-05-21T02:22:41.900Z,13.50
2019-05-21T02:25:10.585Z,13.60
2019-05-21T02:27:39.035Z,13.60
2019-05-21T02:30:09.613Z,13.50
2019-05-21T02:32:38.414Z,13.40
2019-05-21T02:35:07.303Z,13.30
2019-05-21T02:37:35.771Z,13.20
2019-05-21T02:40:05.445Z,13.10
2019-05-21T02:42:34.064Z,13.10
2019-05-21T02:45:02.762Z,13.10
2019-05-21T02:47:31.267Z,13.10
2019-05-21T02:49:59.727Z,13.10
2019-05-21T02:52:28.329Z,13.10
2019-05-21T02:54:56.958Z,13.00
2019-05-21T02:57:27.102Z,13.00
2019-05-21T03:00:00.016Z,12.90
2019-05-21T03:02:30.097Z,12.80
2019-05-21T03:04:58.612Z,12.80
2019-05-21T03:07:27.155Z,12.80
2019-05-21T03:09:55.683Z,12.70
2019-05-21T03:12:24.191Z,12.70
2019-05-21T03:14:52.671Z,12.80
2019-05-21T03:17:21.139Z,12.90
2019-05-21T03:19:49.634Z,12.90
2019-05-21T03:22:18.187Z,12.90
2019-05-21T03:24:46.632Z,12.90
2019-05-21T03:27:15.081Z,12.90
2019-05-21T03:29:43.634Z,12.80
2019-05-21T03:32:12.155Z,12.80
2019-05-21T03:34:40.674Z,12.80
2019-05-21T03:37:09.145Z,12.80
2019-05-21T03:39:37.585Z,13.00
2019-05-21T03:42:06.097Z,13.00
2019-05-21T03:44:34.957Z,13.00
2019-05-21T03:47:03.486Z,13.10
2019-05-21T03:49:32.367Z,13.10
2019-05-21T03:52:00.848Z,13.20
2019-05-21T03:54:29.360Z,13.20
2019-05-21T03:56:58.230Z,13.20
2019-05-21T03:59:26.768Z,13.20
2019-05-21T04:01:55.226Z,13.20
2019-05-21T04:04:23.745Z,13.30
2019-05-21T04:06:52.776Z,13.40
2019-05-21T04:09:21.350Z,13.40
2019-05-21T04:11:53.112Z,13.50
2019-05-21T04:14:33.368Z,13.60
2019-05-21T04:17:03.525Z,13.60
2019-05-21T04:19:36.470Z,13.50
2019-05-21T04:22:08.025Z,13.70
2019-05-21T04:24:36.462Z,13.50
2019-05-21T04:27:05.053Z,13.70
2019-05-21T04:29:33.593Z,13.50
2019-05-21T04:32:02.042Z,13.70
2019-05-21T04:34:30.564Z,13.60
2019-05-21T04:37:09.854Z,13.50
2019-05-21T04:39:29.208Z,13.50
2019-05-21T04:41:57.717Z,13.80
2019-05-21T04:44:26.209Z,13.80
2019-05-21T04:46:54.725Z,13.80
2019-05-21T04:49:23.306Z,13.80
2019-05-21T04:51:51.849Z,13.80
2019-05-21T04:54:20.370Z,13.80
2019-05-21T04:56:48.826Z,14.10
2019-05-21T04:59:17.488Z,14.20
2019-05-21T05:01:45.934Z,14.30
2019-05-21T05:04:14.474Z,14.40
2019-05-21T05:06:43.005Z,14.60
2019-05-21T05:09:11.449Z,14.90
2019-05-21T05:11:39.892Z,15.00
2019-05-21T05:14:08.417Z,14.90
2019-05-21T05:16:36.857Z,15.00
2019-05-21T05:19:05.297Z,15.00
2019-05-21T05:21:34.062Z,15.20
2019-05-21T05:24:02.592Z,15.10
2019-05-21T05:26:31.101Z,15.10
2019-05-21T05:28:59.618Z,15.40
2019-05-21T05:31:28.072Z,15.50
2019-05-21T05:33:56.507Z,15.30
2019-05-21T05:36:24.985Z,15.10
2019-05-21T05:38:53.429Z,15.00
2019-05-21T05:41:21.885Z,15.00
2019-05-21T05:43:50.422Z,15.20
2019-05-21T05:46:18.939Z,15.40
2019-05-21T05:48:49.040Z,15.70
2019-05-21T05:51:17.577Z,15.70
2019-05-21T05:53:58.246Z,15.70
2019-05-21T05:56:28.418Z,15.80
2019-05-21T05:58:57.673Z,15.90
2019-05-21T06:01:27.759Z,16.00
2019-05-21T06:03:56.253Z,16.10
2019-05-21T06:06:24.777Z,16.10
2019-05-21T06:08:53.294Z,16.30
2019-05-21T06:11:21.787Z,16.50
2019-05-21T06:13:50.222Z,16.50
2019-05-21T06:16:18.703Z,16.60
2019-05-21T06:18:47.242Z,16.90
2019-05-21T06:21:15.689Z,17.00
2019-05-21T06:23:44.206Z,16.80
2019-05-21T06:26:12.809Z,16.90
2019-05-21T06:28:41.256Z,17.10
2019-05-21T06:31:09.722Z,17.20
2019-05-21T06:33:38.264Z,17.30
2019-05-21T06:36:06.723Z,17.30
2019-05-21T06:38:35.203Z,17.30
2019-05-21T06:41:03.742Z,17.30
2019-05-21T06:43:32.326Z,17.40
2019-05-21T06:46:00.773Z,17.50
2019-05-21T06:48:29.247Z,17.60
2019-05-21T06:50:57.680Z,17.60
2019-05-21T06:53:26.131Z,17.90
2019-05-21T06:55:54.605Z,18.10
2019-05-21T06:58:23.058Z,18.20
2019-05-21T07:00:51.560Z,18.20
2019-05-21T07:03:20.438Z,18.10
2019-05-21T07:05:58.396Z,18.10
2019-05-21T07:08:33.460Z,18.20
2019-05-21T07:10:49.264Z,18.00
2019-05-21T07:13:17.774Z,18.10
2019-05-21T07:15:46.247Z,18.40
2019-05-21T07:18:14.774Z,18.50
2019-05-21T07:20:43.213Z,18.30
2019-05-21T07:23:11.739Z,18.40
2019-05-21T07:25:40.208Z,18.50
2019-05-21T07:28:08.654Z,18.40
2019-05-21T07:30:37.098Z,18.30
2019-05-21T07:33:06.428Z,18.70
2019-05-21T07:35:35.382Z,18.50
2019-05-21T07:38:03.915Z,18.50
2019-05-21T07:40:32.470Z,18.80
2019-05-21T07:43:00.965Z,18.70
2019-05-21T07:45:29.413Z,18.70
2019-05-21T07:47:57.991Z,19.10
2019-05-21T07:50:26.519Z,19.20
2019-05-21T07:52:54.955Z,19.30
2019-05-21T07:55:23.451Z,19.40
2019-05-21T07:57:51.892Z,19.00
2019-05-21T08:00:20.741Z,18.90
2019-05-21T08:02:49.218Z,18.70
2019-05-21T08:05:17.895Z,18.30
2019-05-21T08:07:46.477Z,18.10
2019-05-21T08:10:15.242Z,18.20
2019-05-21T08:12:43.774Z,18.30
2019-05-21T08:15:12.721Z,18.50
2019-05-21T08:17:41.210Z,18.80
2019-05-21T08:20:12.202Z,19.00
2019-05-21T08:22:40.655Z,19.00
2019-05-21T08:25:13.844Z,19.30
2019-05-21T08:27:39.645Z,19.60
2019-05-21T08:30:08.433Z,20.00
2019-05-21T08:32:36.979Z,19.60
2019-05-21T08:35:05.831Z,19.90
2019-05-21T08:37:34.280Z,19.70
2019-05-21T08:40:03.291Z,19.80
2019-05-21T08:42:31.806Z,20.10
2019-05-21T08:45:00.253Z,20.30
2019-05-21T08:47:28.836Z,19.70
2019-05-21T08:49:57.346Z,19.90
2019-05-21T08:52:25.862Z,20.40
2019-05-21T08:54:56.383Z,20.60
2019-05-21T08:57:24.505Z,20.50
2019-05-21T08:59:52.953Z,20.30
2019-05-21T09:02:21.481Z,20.10
2019-05-21T09:04:50.124Z,20.30
2019-05-21T09:07:19.024Z,20.30
2019-05-21T09:09:50.680Z,20.60
2019-05-21T09:12:17.747Z,20.80
2019-05-21T09:14:46.322Z,21.30
2019-05-21T09:17:14.796Z,21.30
2019-05-21T09:19:43.245Z,21.60
2019-05-21T09:22:11.704Z,21.50
2019-05-21T09:24:40.254Z,20.90
2019-05-21T09:27:08.702Z,21.00
2019-05-21T09:29:37.213Z,21.50
2019-05-21T09:32:05.711Z,21.40
2019-05-21T09:34:48.200Z,21.10
2019-05-21T09:37:18.475Z,21.10
2019-05-21T09:39:34.772Z,20.90
2019-05-21T09:42:03.214Z,21.30
2019-05-21T09:44:31.654Z,21.60
2019-05-21T09:47:00.222Z,21.30
2019-05-21T09:49:28.735Z,21.60
2019-05-21T09:51:57.187Z,22.20
2019-05-21T09:54:25.752Z,21.80
2019-05-21T09:56:54.242Z,22.20
2019-05-21T09:59:42.797Z,22.40
2019-05-21T10:02:13.047Z,21.80
2019-05-21T10:04:41.566Z,21.90
2019-05-21T10:07:10.165Z,21.90
2019-05-21T10:09:38.959Z,22.00
2019-05-21T10:12:07.740Z,22.00
2019-05-21T10:14:36.291Z,22.70
2019-05-21T10:17:05.155Z,22.90
2019-05-21T10:19:36.434Z,22.60
2019-05-21T10:22:05.298Z,22.40
2019-05-21T10:24:33.862Z,22.00
2019-05-21T10:27:03.485Z,22.30
2019-05-21T10:29:32.235Z,22.60
2019-05-21T10:32:00.669Z,22.80
2019-05-21T10:34:29.175Z,22.90
2019-05-21T10:36:57.722Z,22.80
2019-05-21T10:39:26.235Z,22.00
2019-05-21T10:41:54.674Z,21.40
2019-05-21T10:44:23.167Z,21.30
2019-05-21T10:46:51.781Z,20.80
2019-05-21T10:49:20.277Z,20.60
2019-05-21T10:51:48.841Z,20.50
2019-05-21T10:54:17.281Z,20.70
2019-05-21T10:56:48.324Z,20.90
2019-05-21T10:59:16.069Z,21.20
2019-05-21T11:02:04.006Z,21.10
2019-05-21T11:04:46.223Z,21.40
2019-05-21T11:08:23.911Z,21.70
2019-05-21T11:10:49.294Z,22.40
2019-05-21T11:13:18.083Z,22.50
2019-05-21T11:15:46.849Z,22.10
2019-05-21T11:18:15.391Z,22.30
2019-05-21T11:20:43.993Z,22.20
2019-05-21T11:23:12.513Z,21.60
2019-05-21T11:25:41.058Z,21.90
2019-05-21T11:28:09.497Z,22.00
2019-05-21T11:30:38.009Z,21.80
2019-05-21T11:33:06.743Z,22.00
2019-05-21T11:35:36.124Z,21.80
2019-05-21T11:38:05.145Z,21.90
2019-05-21T11:40:33.695Z,21.50
2019-05-21T11:43:02.208Z,21.60
2019-05-21T11:48:59.755Z,21.30
2019-05-21T11:51:28.518Z,21.40
2019-05-21T11:53:57.287Z,21.40
2019-05-21T11:56:26.122Z,21.30
2019-05-21T11:58:54.886Z,21.20
2019-05-21T12:01:23.656Z,20.60
2019-05-21T12:03:52.450Z,20.80
2019-05-21T12:06:21.239Z,20.70
2019-05-21T12:08:56.789Z,20.90
2019-05-21T12:11:20.942Z,20.60
2019-05-21T12:13:49.708Z,20.80
2019-05-21T12:16:18.478Z,21.00
2019-05-21T12:18:47.294Z,21.30
2019-05-21T12:21:16.069Z,21.20
2019-05-21T12:23:44.857Z,21.50
2019-05-21T12:26:13.567Z,21.60
2019-05-21T12:28:42.087Z,21.40
2019-05-21T12:31:10.602Z,21.00
2019-05-21T12:33:39.098Z,20.50
2019-05-21T12:36:08.216Z,20.30
2019-05-21T12:38:36.658Z,20.50
2019-05-21T12:41:05.198Z,20.30
2019-05-21T12:43:33.808Z,20.20
2019-05-21T12:46:02.244Z,20.00
2019-05-21T12:48:30.708Z,19.90
2019-05-21T12:50:59.150Z,19.70
2019-05-21T12:53:27.626Z,19.70
2019-05-21T12:55:56.177Z,19.60
2019-05-21T12:58:25.489Z,19.50
2019-05-21T13:00:54.078Z,19.30
2019-05-21T13:03:22.557Z,19.30
2019-05-21T13:05:51.093Z,19.20
2019-05-21T13:08:19.714Z,19.10
2019-05-21T13:10:48.202Z,18.90
2019-05-21T13:13:16.645Z,18.90
2019-05-21T13:15:45.245Z,18.90
2019-05-21T13:18:13.754Z,18.90
2019-05-21T13:20:42.273Z,18.90
2019-05-21T13:23:10.856Z,18.80
2019-05-21T13:25:39.394Z,18.90
2019-05-21T13:28:07.834Z,19.00
2019-05-21T13:30:36.370Z,18.80
2019-05-21T13:33:05.282Z,18.80
2019-05-21T13:35:33.961Z,18.80
2019-05-21T13:38:02.407Z,18.90
2019-05-21T13:40:32.511Z,18.90
2019-05-21T13:43:00.956Z,19.10
2019-05-21T13:45:29.392Z,19.20
2019-05-21T13:47:57.947Z,19.30
2019-05-21T13:50:26.461Z,19.20
2019-05-21T13:52:54.972Z,19.20
2019-05-21T13:55:23.510Z,19.30
2019-05-21T13:57:52.025Z,19.50
2019-05-21T14:00:28.923Z,19.50
2019-05-21T14:02:57.373Z,19.50
2019-05-21T14:05:26.261Z,19.70
2019-05-21T14:07:54.732Z,19.80
2019-05-21T14:10:23.381Z,20.00
2019-05-21T14:12:51.885Z,19.90
2019-05-21T14:15:20.421Z,20.00
2019-05-21T14:17:48.857Z,20.00
2019-05-21T14:20:17.449Z,20.10
2019-05-21T14:22:45.997Z,20.10
2019-05-21T14:25:14.674Z,19.90
2019-05-21T14:27:45.082Z,19.80
2019-05-21T14:30:13.771Z,19.70
2019-05-21T14:32:42.263Z,19.80
2019-05-21T14:35:10.911Z,19.80
2019-05-21T14:37:39.380Z,19.80
2019-05-21T14:40:09.257Z,19.60
2019-05-21T14:42:37.770Z,19.60
2019-05-21T14:45:07.841Z,19.50
2019-05-21T14:47:37.018Z,19.30
2019-05-21T14:50:08.092Z,19.10
2019-05-21T14:52:36.649Z,19.20
2019-05-21T14:55:08.415Z,19.30
2019-05-21T14:57:37.004Z,19.10
2019-05-21T15:00:09.055Z,19.10
2019-05-21T15:02:37.516Z,19.10
2019-05-21T15:05:06.594Z,19.10
2019-05-21T15:07:35.066Z,19.20
2019-05-21T15:10:04.723Z,19.20
2019-05-21T15:12:33.240Z,19.20
2019-05-21T15:15:01.721Z,19.20
2019-05-21T15:17:30.434Z,19.20
2019-05-21T15:20:00.597Z,19.20
2019-05-21T15:22:29.147Z,19.10
2019-05-21T15:24:57.666Z,19.00
2019-05-21T15:27:26.107Z,18.80
2019-05-21T15:29:57.193Z,18.80
2019-05-21T15:32:25.433Z,18.80
2019-05-21T15:34:54.707Z,18.90
2019-05-21T15:37:23.179Z,18.90
2019-05-21T15:39:51.702Z,18.80
2019-05-21T15:42:20.152Z,18.80
2019-05-21T15:44:48.656Z,18.90
2019-05-21T15:47:17.174Z,18.90
2019-05-21T15:49:45.611Z,18.90
2019-05-21T15:52:14.091Z,18.90
2019-05-21T15:54:42.550Z,18.90
2019-05-21T15:57:11.070Z,18.80
2019-05-21T15:59:39.617Z,18.70
2019-05-21T16:02:08.061Z,18.70
2019-05-21T16:04:36.507Z,18.60
2019-05-21T16:07:05.066Z,18.50
2019-05-21T16:09:34.879Z,18.40
2019-05-21T16:12:03.453Z,18.30
2019-05-21T16:14:31.943Z,18.30
2019-05-21T16:17:00.382Z,18.30
2019-05-21T16:19:29.030Z,18.30
2019-05-21T16:21:57.498Z,18.20
2019-05-21T16:24:25.939Z,18.20
2019-05-21T16:26:54.392Z,18.10
2019-05-21T16:29:22.985Z,18.10
2019-05-21T16:31:51.910Z,18.10
2019-05-21T16:34:20.428Z,18.10
2019-05-21T16:36:48.916Z,18.10
2019-05-21T16:39:19.312Z,18.10
2019-05-21T16:41:47.763Z,18.10
2019-05-21T16:44:16.238Z,18.10
2019-05-21T16:46:44.709Z,18.10
2019-05-21T16:49:13.238Z,18.10
2019-05-21T16:51:43.532Z,18.10
2019-05-21T16:54:12.378Z,18.00
2019-05-21T16:56:40.822Z,18.00
2019-05-21T16:59:09.534Z,18.00
2019-05-21T17:01:38.069Z,18.10
2019-05-21T17:04:06.783Z,18.10
2019-05-21T17:06:35.281Z,18.20
2019-05-21T17:09:04.914Z,18.00
2019-05-21T17:11:32.651Z,17.90
2019-05-21T17:14:01.140Z,17.70
2019-05-21T17:16:29.573Z,17.50
2019-05-21T17:18:58.086Z,17.30
2019-05-21T17:21:26.709Z,17.20
2019-05-21T17:23:55.145Z,16.90
2019-05-21T17:26:23.600Z,16.70
2019-05-21T17:28:52.086Z,16.70
2019-05-21T17:31:20.627Z,16.80
2019-05-21T17:33:49.129Z,16.70
2019-05-21T17:36:17.760Z,16.60
2019-05-21T17:38:46.217Z,16.50
2019-05-21T17:41:14.728Z,16.40
2019-05-21T17:43:43.376Z,16.40
2019-05-21T17:46:11.827Z,16.20
2019-05-21T17:48:40.269Z,16.20
2019-05-21T17:51:09.313Z,16.20
2019-05-21T17:53:37.975Z,16.20
2019-05-21T17:56:06.897Z,16.10
2019-05-21T17:58:35.624Z,16.00
2019-05-21T18:01:07.312Z,16.00
2019-05-21T18:03:35.837Z,16.00
2019-05-21T18:06:04.904Z,15.90
2019-05-21T18:08:33.886Z,15.90
2019-05-21T18:11:02.775Z,15.80
2019-05-21T18:13:31.833Z,15.70
2019-05-21T18:16:00.561Z,15.60
2019-05-21T18:18:29.381Z,15.60
2019-05-21T18:20:58.246Z,15.60
2019-05-21T18:23:26.833Z,15.40
2019-05-21T18:25:55.692Z,15.30
2019-05-21T18:28:24.177Z,15.20
2019-05-21T18:30:52.897Z,15.10
2019-05-21T18:33:21.348Z,15.10
2019-05-21T18:35:50.111Z,15.00
2019-05-21T18:38:18.725Z,15.00
2019-05-21T18:40:47.607Z,15.00
2019-05-21T18:43:16.089Z,14.90
2019-05-21T18:45:44.604Z,14.80
2019-05-21T18:48:14.711Z,14.70
2019-05-21T18:50:43.269Z,14.70
2019-05-21T18:53:11.862Z,14.70
2019-05-21T18:55:40.396Z,14.70
2019-05-21T18:58:09.293Z,14.70
2019-05-21T19:00:38.086Z,14.70
2019-05-21T19:03:06.948Z,14.60
2019-05-21T19:05:35.446Z,14.60
2019-05-21T19:08:04.046Z,14.60
2019-05-21T19:10:43.029Z,14.60
2019-05-21T19:13:11.737Z,14.60
2019-05-21T19:15:44.566Z,14.60
2019-05-21T19:18:13.820Z,14.50
2019-05-21T19:20:42.394Z,14.50
2019-05-21T19:23:11.141Z,14.50
2019-05-21T19:25:40.261Z,14.50
2019-05-21T19:28:08.789Z,14.50
2019-05-21T19:30:37.526Z,14.50
2019-05-21T19:33:06.730Z,14.60
2019-05-21T19:35:35.381Z,14.60
2019-05-21T19:38:04.068Z,14.60
2019-05-21T19:40:32.633Z,14.60
2019-05-21T19:43:05.412Z,14.60
2019-05-21T19:45:34.086Z,14.60
2019-05-21T19:48:02.697Z,14.60
2019-05-21T19:50:32.684Z,14.60
2019-05-21T19:53:01.264Z,14.60
2019-05-21T19:55:31.073Z,14.60
2019-05-21T19:57:59.604Z,14.60
2019-05-21T20:00:28.325Z,14.60
2019-05-21T20:02:56.797Z,14.70
2019-05-21T20:05:25.484Z,14.70
2019-05-21T20:07:54.768Z,14.70
2019-05-21T20:10:23.514Z,14.70
2019-05-21T20:12:52.103Z,14.70
2019-05-21T20:15:20.697Z,14.70
2019-05-21T20:18:06.236Z,14.60
2019-05-21T20:20:42.247Z,14.70
2019-05-21T20:23:12.264Z,14.70
2019-05-21T20:25:55.282Z,14.60
2019-05-21T20:28:13.223Z,14.70
2019-05-21T20:30:44.727Z,14.70
2019-05-21T20:33:14.065Z,14.60
2019-05-21T20:35:42.753Z,14.60
2019-05-21T20:38:12.223Z,14.60
2019-05-21T20:40:41.300Z,14.50
2019-05-21T20:43:10.814Z,14.60
2019-05-21T20:45:39.890Z,14.50
2019-05-21T20:48:08.883Z,14.50
2019-05-21T20:50:38.278Z,14.50
2019-05-21T20:53:08.012Z,14.60
2019-05-21T20:55:36.580Z,14.50
2019-05-21T20:58:05.568Z,14.50
2019-05-21T21:00:36.686Z,14.50
2019-05-21T21:03:05.377Z,14.50
2019-05-21T21:05:34.042Z,14.60
2019-05-21T21:08:03.353Z,14.60
2019-05-21T21:10:33.118Z,14.60
2019-05-21T21:13:02.278Z,14.60
2019-05-21T21:15:31.529Z,14.50
2019-05-21T21:18:00.749Z,14.50
2019-05-21T21:20:29.454Z,14.60
2019-05-21T21:22:58.068Z,14.60
2019-05-21T21:25:27.560Z,14.50
2019-05-21T21:27:56.080Z,14.50
2019-05-21T21:30:25.998Z,14.50
2019-05-21T21:32:56.291Z,14.40
2019-05-21T21:35:25.095Z,14.40
2019-05-21T21:37:53.741Z,14.50
2019-05-21T21:40:23.930Z,14.40
2019-05-21T21:42:52.521Z,14.50
2019-05-21T21:45:21.083Z,14.40
2019-05-21T21:47:50.193Z,14.40
2019-05-21T21:50:19.184Z,14.40
2019-05-21T21:52:48.105Z,14.40
2019-05-21T21:55:16.790Z,14.40
2019-05-21T21:57:45.416Z,14.40
2019-05-21T22:00:42.121Z,14.40
2019-05-21T22:03:12.410Z,14.40
2019-05-21T22:05:41.402Z,14.30
2019-05-21T22:08:10.425Z,14.40
2019-05-21T22:10:39.776Z,14.40
2019-05-21T22:13:08.403Z,14.40
2019-05-21T22:15:37.996Z,14.40
2019-05-21T22:18:06.264Z,14.30
2019-05-21T22:20:35.093Z,14.20
2019-05-21T22:23:03.820Z,14.10
2019-05-21T22:25:32.616Z,14.10
2019-05-21T22:28:01.063Z,14.10
2019-05-21T22:30:29.627Z,14.00
2019-05-21T22:32:58.249Z,14.00
2019-05-21T22:35:26.945Z,13.90
2019-05-21T22:37:55.567Z,14.00
2019-05-21T22:40:24.106Z,14.00
2019-05-21T22:42:52.700Z,14.00
2019-05-21T22:45:21.581Z,14.00
2019-05-21T22:47:50.099Z,13.90
2019-05-21T22:50:18.900Z,13.90
2019-05-21T22:52:47.372Z,13.90
2019-05-21T22:55:15.988Z,13.90
2019-05-21T22:57:44.429Z,13.90
2019-05-21T23:00:13.517Z,14.00
2019-05-21T23:02:44.156Z,14.00
2019-05-21T23:05:12.900Z,14.00
2019-05-21T23:07:41.988Z,14.00
2019-05-21T23:10:12.361Z,14.00
2019-05-21T23:12:40.887Z,14.00
2019-05-21T23:15:23.616Z,14.00
2019-05-21T23:17:41.462Z,14.00
2019-05-21T23:20:12.420Z,13.90
2019-05-21T23:22:41.482Z,14.00
2019-05-21T23:25:11.337Z,14.00
2019-05-21T23:27:40.524Z,14.00
2019-05-21T23:30:11.896Z,14.00
2019-05-21T23:32:40.481Z,14.00
2019-05-21T23:35:14.290Z,14.00
2019-05-21T23:37:44.677Z,14.10
2019-05-21T23:40:15.540Z,14.00
2019-05-21T23:42:43.989Z,14.00
2019-05-21T23:45:12.834Z,14.10
2019-05-21T23:47:41.419Z,14.00
2019-05-21T23:50:11.194Z,14.10
2019-05-21T23:52:40.062Z,14.00
2019-05-21T23:55:09.205Z,14.10
2019-05-21T23:57:38.787Z,14.10
